PILOTS ONLINE: 308    ATC ONLINE: 50

PABI - Allen Army Airfield

Location

IATA BIG
City Delta Junction Ft Greely
Country  United States
Latitude 63° 59' 40" N
Longitude 145° 43' 19" W
Elevation 1291 ft
Type Medium Airport

Runways

01/19 9000 ft / 150 ft
07/25 4679 ft / 164 ft
10/28 6115 ft / 150 ft

Weather

METAR
2014/07/31 02:53
PABI 310253Z 28006KT 10SM FEW070 FEW100 SCT200 21/02 A3021 RMK AO2 SLP233 T02060022 55001
TAF
2014/07/30 22:09
TAF PABI 3022/0104 33006KT 9999 FEW060 SCT180 QNH3018INS 
      BECMG 3114/3115 VRB06KT 9999 SCT070 BKN180 QNH3016INS 
      BECMG 3122/3123 28008KT 9999 SCT080 BKN120 BKN180 QNH3014INS TX20/0102Z TN10/3114Z

Outbound flights

Inbound flights